Time;durP1;ratioP1;P1;durP2;ratioP2;P2;SDS_P1;SDS_P2;PMS_P1;PMS_P2;Temp;Humidity;BMP_temperature;BMP_pressure;BME280_temperature;BME280_humidity;BME280_pressure;Samples;Min_cycle;Max_cycle;Signal;HPM_P1;HPM_P2
2023/06/10 00:00:00;;;;;;;13.38;10.90;;;21.20;26.10;;;;;;5037575;28;20447;-71
2023/06/10 00:02:28;;;;;;;14.88;11.32;;;21.20;26.10;;;;;;5037248;28;20449;-68
2023/06/10 00:04:54;;;;;;;13.73;10.90;;;21.10;26.50;;;;;;5032236;28;20390;-69
2023/06/10 00:07:19;;;;;;;13.10;10.97;;;21.10;26.50;;;;;;5033557;28;20383;-68
2023/06/10 00:09:45;;;;;;;13.88;10.70;;;21.20;25.80;;;;;;5031741;28;20390;-68
2023/06/10 00:12:11;;;;;;;14.70;11.10;;;21.10;25.90;;;;;;5031824;28;20379;-68
2023/06/10 00:14:40;;;;;;;13.70;10.87;;;21.10;26.30;;;;;;5031412;28;20803;-70
2023/06/10 00:17:10;;;;;;;15.70;10.90;;;21.00;26.30;;;;;;5030357;28;20387;-70
2023/06/10 00:19:41;;;;;;;14.00;10.88;;;20.90;27.00;;;;;;5031764;28;20896;-68
2023/06/10 00:22:07;;;;;;;14.98;11.80;;;20.80;27.50;;;;;;5032416;28;20406;-69
2023/06/10 00:24:32;;;;;;;15.90;10.93;;;20.70;28.20;;;;;;5032178;28;20415;-70
2023/06/10 00:26:58;;;;;;;14.47;10.33;;;20.50;28.10;;;;;;5031446;28;20395;-69
2023/06/10 00:29:23;;;;;;;14.17;10.80;;;20.50;28.60;;;;;;5029893;28;20552;-68
2023/06/10 00:31:49;;;;;;;15.43;10.73;;;20.50;28.10;;;;;;5030669;28;20441;-68
2023/06/10 00:34:15;;;;;;;13.87;11.40;;;20.40;28.20;;;;;;5031773;28;20383;-69
2023/06/10 00:36:40;;;;;;;14.02;11.10;;;20.50;28.50;;;;;;5015587;28;20907;-70
2023/06/10 00:39:06;;;;;;;16.48;11.02;;;20.50;28.10;;;;;;5029640;28;20873;-68
2023/06/10 00:41:33;;;;;;;12.87;10.80;;;20.40;28.30;;;;;;5037052;28;20434;-70
2023/06/10 00:43:59;;;;;;;13.07;11.10;;;20.30;28.60;;;;;;5046048;28;20837;-70
2023/06/10 00:46:26;;;;;;;15.77;10.70;;;20.40;29.00;;;;;;5044011;28;20391;-72
2023/06/10 00:48:52;;;;;;;14.93;10.85;;;20.40;28.80;;;;;;5047502;28;20383;-70
2023/06/10 00:51:18;;;;;;;12.40;11.02;;;20.40;28.80;;;;;;5048759;28;20391;-69
2023/06/10 00:53:45;;;;;;;14.68;11.40;;;20.30;28.90;;;;;;5042515;28;20839;-70
2023/06/10 00:56:11;;;;;;;13.80;10.75;;;20.40;28.70;;;;;;5047128;28;20403;-71
2023/06/10 00:58:37;;;;;;;12.85;10.50;;;20.50;28.90;;;;;;5042116;28;20389;-68
2023/06/10 01:01:03;;;;;;;16.27;11.55;;;20.30;29.10;;;;;;5031747;28;20379;-69
2023/06/10 01:03:29;;;;;;;12.88;10.73;;;20.10;30.90;;;;;;5031588;28;20423;-70
2023/06/10 01:06:06;;;;;;;18.90;11.90;;;19.90;31.40;;;;;;5032723;28;20895;-71
2023/06/10 01:09:01;;;;;;;18.67;11.60;;;20.00;32.30;;;;;;5035009;28;20402;-68
2023/06/10 01:11:41;;;;;;;13.45;10.90;;;20.20;32.00;;;;;;5034376;28;20815;-69
2023/06/10 01:14:09;;;;;;;14.30;11.93;;;20.00;32.60;;;;;;5034919;28;20379;-69
2023/06/10 01:16:36;;;;;;;15.90;12.00;;;19.80;33.60;;;;;;5034693;28;20411;-69
2023/06/10 01:19:02;;;;;;;16.08;11.80;;;19.90;33.80;;;;;;5034400;28;20394;-70
2023/06/10 01:21:28;;;;;;;15.90;12.15;;;19.80;34.00;;;;;;5034388;28;20379;-71
2023/06/10 01:23:55;;;;;;;13.18;11.07;;;19.90;33.60;;;;;;5034621;28;20466;-70
2023/06/10 01:26:28;;;;;;;18.20;12.80;;;19.90;33.30;;;;;;5034440;28;20395;-69
2023/06/10 01:29:28;;;;;;;16.00;12.00;;;19.90;33.40;;;;;;5034134;28;20401;-69
2023/06/10 01:32:23;;;;;;;15.25;12.27;;;19.70;34.20;;;;;;5034405;28;20389;-70
2023/06/10 01:34:49;;;;;;;14.07;11.55;;;19.60;35.20;;;;;;5021030;28;20422;-69
2023/06/10 01:37:18;;;;;;;13.65;11.48;;;19.50;36.10;;;;;;5034205;28;20605;-69
2023/06/10 01:39:46;;;;;;;15.70;12.43;;;19.40;36.10;;;;;;5034422;28;20382;-68
2023/06/10 01:42:12;;;;;;;15.75;12.15;;;19.20;37.50;;;;;;5032691;28;20407;-71
2023/06/10 01:44:39;;;;;;;17.25;12.43;;;19.00;38.80;;;;;;5035465;28;20478;-71
2023/06/10 01:47:05;;;;;;;15.48;12.60;;;18.80;40.50;;;;;;5035357;28;20383;-72
2023/06/10 01:49:30;;;;;;;14.88;12.90;;;19.00;38.80;;;;;;5035236;28;20413;-70
2023/06/10 01:51:56;;;;;;;17.33;11.87;;;19.10;38.70;;;;;;5034763;28;20379;-72
2023/06/10 01:54:21;;;;;;;19.40;12.60;;;19.20;38.20;;;;;;5034433;28;20387;-69
2023/06/10 01:56:47;;;;;;;17.02;13.18;;;19.30;37.00;;;;;;5033685;28;20440;-68
2023/06/10 01:59:12;;;;;;;15.90;12.90;;;19.30;37.40;;;;;;5033601;28;20383;-70
2023/06/10 02:01:38;;;;;;;15.23;11.95;;;19.30;37.60;;;;;;5033492;28;20383;-69
2023/06/10 02:04:03;;;;;;;17.77;12.60;;;19.20;38.20;;;;;;5033653;28;20394;-70
2023/06/10 02:06:29;;;;;;;18.83;12.73;;;19.20;38.00;;;;;;5033645;28;20379;-69
2023/06/10 02:08:55;;;;;;;13.85;12.35;;;19.30;37.90;;;;;;5033726;28;20437;-69
2023/06/10 02:11:21;;;;;;;18.30;12.77;;;19.20;37.90;;;;;;5033330;28;20379;-71
2023/06/10 02:13:47;;;;;;;15.77;12.68;;;19.20;38.30;;;;;;5033473;28;20387;-69
2023/06/10 02:16:12;;;;;;;16.10;12.52;;;19.20;38.20;;;;;;5033171;28;20494;-68
2023/06/10 02:18:42;;;;;;;18.43;12.63;;;19.10;38.60;;;;;;5033458;28;20411;-68
2023/06/10 02:21:08;;;;;;;17.33;12.90;;;19.00;38.90;;;;;;5033436;28;20387;-70
2023/06/10 02:23:33;;;;;;;17.93;12.63;;;19.00;38.60;;;;;;5033429;28;20383;-69
2023/06/10 02:25:59;;;;;;;14.18;12.57;;;19.00;38.70;;;;;;5033698;28;20397;-70
2023/06/10 02:28:25;;;;;;;17.33;12.38;;;18.90;39.40;;;;;;5031787;28;20422;-69
2023/06/10 02:30:51;;;;;;;15.30;13.00;;;18.80;39.80;;;;;;5033166;28;20849;-68
2023/06/10 02:33:17;;;;;;;17.58;13.60;;;18.70;40.80;;;;;;5033076;28;20383;-69
2023/06/10 02:35:43;;;;;;;15.70;12.93;;;18.70;41.40;;;;;;5032219;28;20405;-69
2023/06/10 02:38:08;;;;;;;18.13;13.97;;;18.70;41.90;;;;;;5033577;28;20908;-70
2023/06/10 02:40:34;;;;;;;16.07;13.77;;;18.50;42.50;;;;;;5033060;28;20394;-68
2023/06/10 02:42:59;;;;;;;18.52;13.80;;;18.50;43.10;;;;;;5033273;28;20375;-70
2023/06/10 02:45:25;;;;;;;17.70;14.50;;;18.50;42.40;;;;;;5033527;28;20394;-69
2023/06/10 02:47:51;;;;;;;17.37;13.40;;;18.50;42.80;;;;;;5031794;28;20398;-69
2023/06/10 02:50:16;;;;;;;15.77;13.83;;;18.60;43.10;;;;;;5033154;28;20887;-69
2023/06/10 02:52:43;;;;;;;17.88;14.05;;;18.60;42.50;;;;;;5032822;28;20379;-68
2023/06/10 02:55:09;;;;;;;18.20;13.25;;;18.50;42.80;;;;;;5032469;28;20830;-69
2023/06/10 02:57:35;;;;;;;17.50;13.80;;;18.40;43.00;;;;;;5032549;28;20469;-70
2023/06/10 03:00:02;;;;;;;16.27;13.77;;;18.40;43.50;;;;;;5034153;28;20379;-70
2023/06/10 03:02:28;;;;;;;16.65;13.50;;;18.50;42.90;;;;;;5032976;28;20453;-70
2023/06/10 03:04:55;;;;;;;18.23;14.25;;;18.40;43.20;;;;;;5032873;28;20433;-69
2023/06/10 03:07:21;;;;;;;17.98;14.63;;;18.20;44.20;;;;;;5034261;28;20398;-70
2023/06/10 03:09:47;;;;;;;18.13;14.30;;;17.90;46.70;;;;;;5036731;28;20465;-70
2023/06/10 03:12:12;;;;;;;17.95;14.90;;;17.70;49.00;;;;;;5036316;28;20712;-70
2023/06/10 03:14:38;;;;;;;18.83;14.93;;;17.70;49.80;;;;;;5034082;28;20838;-69
2023/06/10 03:17:05;;;;;;;18.73;14.98;;;17.80;49.50;;;;;;5032422;28;20752;-69
2023/06/10 03:19:30;;;;;;;16.45;14.27;;;17.80;50.30;;;;;;5032796;28;20388;-72
2023/06/10 03:22:14;;;;;;;17.07;14.40;;;17.80;50.10;;;;;;5031053;28;20398;-68
2023/06/10 03:24:40;;;;;;;19.05;15.00;;;17.80;49.70;;;;;;5032802;28;20379;-69
2023/06/10 03:27:09;;;;;;;20.23;15.73;;;17.80;49.80;;;;;;5032401;28;20383;-69
2023/06/10 03:29:35;;;;;;;17.73;15.02;;;17.80;50.30;;;;;;5031783;28;20398;-70
2023/06/10 03:32:01;;;;;;;18.65;15.07;;;17.80;50.60;;;;;;5032229;28;20402;-69
2023/06/10 03:34:27;;;;;;;20.40;15.40;;;17.60;51.20;;;;;;5033251;28;20426;-70
2023/06/10 03:36:52;;;;;;;19.85;15.60;;;17.60;51.50;;;;;;5034315;28;20414;-68
2023/06/10 03:39:18;;;;;;;18.40;15.30;;;17.50;52.60;;;;;;5033785;28;20398;-71
2023/06/10 03:41:44;;;;;;;20.80;15.40;;;17.40;54.30;;;;;;5063886;23;20475;-72
2023/06/10 03:44:09;;;;;;;19.50;15.80;;;17.50;54.70;;;;;;5072444;28;20447;-74
2023/06/10 03:46:35;;;;;;;23.10;15.70;;;17.40;55.30;;;;;;5072294;28;20403;-73
2023/06/10 03:49:01;;;;;;;19.93;16.03;;;17.30;56.30;;;;;;5071991;28;20890;-72
2023/06/10 03:51:27;;;;;;;21.40;15.32;;;17.30;57.40;;;;;;5071044;28;20730;-72
2023/06/10 03:53:52;;;;;;;19.73;16.27;;;17.20;58.70;;;;;;5071534;28;20434;-72
2023/06/10 03:56:18;;;;;;;19.52;15.75;;;17.20;58.70;;;;;;5071318;28;20404;-71
2023/06/10 03:58:44;;;;;;;23.00;15.70;;;17.30;58.20;;;;;;5071208;28;20477;-71
2023/06/10 04:01:10;;;;;;;19.73;16.15;;;17.40;57.20;;;;;;5071143;28;20429;-71
2023/06/10 04:03:36;;;;;;;19.58;15.80;;;17.60;56.30;;;;;;5072136;28;20396;-72
2023/06/10 04:06:02;;;;;;;18.55;15.45;;;17.60;55.80;;;;;;5072806;28;20376;-71
2023/06/10 04:08:28;;;;;;;18.58;14.88;;;17.80;54.30;;;;;;5072421;28;20390;-73
2023/06/10 04:10:53;;;;;;;18.87;14.83;;;17.90;51.70;;;;;;5073209;28;20392;-71
2023/06/10 04:13:19;;;;;;;19.13;15.05;;;18.10;50.00;;;;;;5073277;28;20887;-73
2023/06/10 04:15:45;;;;;;;20.42;15.85;;;18.20;50.50;;;;;;5072747;28;20424;-71
2023/06/10 04:18:10;;;;;;;20.95;15.40;;;18.40;47.20;;;;;;5072938;28;20383;-72
2023/06/10 04:20:36;;;;;;;18.40;15.23;;;18.60;45.90;;;;;;5072879;28;20395;-73
2023/06/10 04:23:02;;;;;;;19.50;14.70;;;18.70;44.80;;;;;;5072809;28;20380;-70
2023/06/10 04:25:28;;;;;;;20.07;15.23;;;18.60;45.90;;;;;;5072620;28;20390;-73
2023/06/10 04:27:54;;;;;;;18.20;14.47;;;18.80;44.60;;;;;;5073024;28;20415;-73
2023/06/10 04:30:20;;;;;;;20.50;14.63;;;18.90;43.80;;;;;;5072132;28;20395;-72
2023/06/10 04:32:46;;;;;;;18.23;13.60;;;18.90;43.80;;;;;;5071025;28;20392;-72
2023/06/10 04:35:13;;;;;;;20.88;14.43;;;19.00;42.00;;;;;;5071308;28;20450;-70
2023/06/10 04:37:39;;;;;;;17.95;14.20;;;19.10;41.50;;;;;;5071523;28;20383;-72
2023/06/10 04:40:06;;;;;;;18.00;14.45;;;19.10;41.40;;;;;;5071744;28;20411;-72
2023/06/10 04:42:32;;;;;;;19.20;13.50;;;19.20;40.70;;;;;;5072555;28;20396;-71
2023/06/10 04:44:57;;;;;;;17.87;13.60;;;19.10;40.30;;;;;;5074013;28;20512;-72
2023/06/10 04:47:23;;;;;;;17.85;14.27;;;19.20;40.80;;;;;;5074289;28;20463;-72
2023/06/10 04:49:48;;;;;;;17.57;14.10;;;19.20;40.40;;;;;;5073503;28;20379;-72
2023/06/10 04:52:14;;;;;;;18.23;14.60;;;19.30;40.30;;;;;;5072295;28;20892;-72
2023/06/10 04:54:40;;;;;;;18.60;13.88;;;19.40;40.20;;;;;;5072078;28;20418;-71
2023/06/10 04:57:07;;;;;;;17.70;14.00;;;19.40;39.70;;;;;;5071832;28;20384;-70
2023/06/10 04:59:37;;;;;;;18.48;13.88;;;19.40;39.50;;;;;;5072303;28;20391;-73
2023/06/10 05:02:03;;;;;;;16.83;13.25;;;19.50;39.30;;;;;;5073895;28;20405;-74
2023/06/10 05:04:29;;;;;;;16.73;13.40;;;19.50;39.20;;;;;;5074244;28;20383;-72
2023/06/10 05:06:55;;;;;;;18.10;13.90;;;19.50;39.60;;;;;;5072863;28;20379;-71
2023/06/10 05:09:21;;;;;;;18.42;13.55;;;19.60;39.30;;;;;;5071729;28;20833;-73
2023/06/10 05:11:46;;;;;;;16.93;13.80;;;19.60;39.90;;;;;;5072260;28;20376;-74
2023/06/10 05:14:12;;;;;;;19.70;13.60;;;19.60;39.60;;;;;;5073432;28;20376;-72
2023/06/10 05:16:38;;;;;;;18.55;14.70;;;19.60;39.50;;;;;;5072130;28;20400;-73
2023/06/10 05:19:04;;;;;;;18.33;13.75;;;19.70;39.20;;;;;;5073444;28;20392;-73
2023/06/10 05:21:30;;;;;;;19.48;14.23;;;19.70;39.10;;;;;;5072716;28;20756;-71
2023/06/10 05:23:55;;;;;;;18.48;14.13;;;19.70;39.70;;;;;;5073229;28;20380;-71
2023/06/10 05:26:21;;;;;;;20.05;14.52;;;19.80;39.70;;;;;;5075520;28;20387;-74
2023/06/10 05:28:47;;;;;;;24.33;14.40;;;19.90;39.20;;;;;;5081903;28;20411;-73
2023/06/10 05:31:13;;;;;;;17.52;14.32;;;20.00;39.20;;;;;;5072684;28;20462;-71
2023/06/10 05:33:39;;;;;;;19.25;15.15;;;20.00;39.20;;;;;;5072329;28;20423;-71
2023/06/10 05:36:05;;;;;;;18.52;14.73;;;20.10;38.70;;;;;;5078107;28;20425;-71
2023/06/10 05:38:31;;;;;;;16.73;13.85;;;20.10;38.80;;;;;;5079933;28;20451;-73
2023/06/10 05:40:58;;;;;;;20.05;14.45;;;20.20;38.70;;;;;;5090589;28;20375;-71
2023/06/10 05:43:24;;;;;;;19.07;14.80;;;20.20;38.90;;;;;;5091458;28;20376;-70
2023/06/10 05:45:49;;;;;;;20.87;14.60;;;20.30;38.60;;;;;;5090587;28;20417;-71
2023/06/10 05:48:15;;;;;;;18.45;14.73;;;20.40;38.40;;;;;;5091730;28;20430;-70
2023/06/10 05:50:42;;;;;;;20.57;13.70;;;20.40;37.50;;;;;;5091424;28;20391;-70
2023/06/10 05:53:14;;;;;;;16.70;14.20;;;20.40;37.10;;;;;;5094268;28;20418;-69
2023/06/10 05:55:44;;;;;;;17.13;14.00;;;20.40;36.40;;;;;;5087503;28;20429;-69
2023/06/10 05:58:12;;;;;;;15.38;13.68;;;20.50;36.50;;;;;;5087020;28;20422;-73
2023/06/10 06:00:38;;;;;;;19.52;13.75;;;20.50;35.90;;;;;;5084746;28;20380;-72
2023/06/10 06:03:03;;;;;;;18.70;13.90;;;20.70;34.80;;;;;;5082107;28;20382;-71
2023/06/10 06:05:34;;;;;;;17.17;13.47;;;20.80;35.00;;;;;;5082373;28;20749;-70
2023/06/10 06:08:01;;;;;;;14.90;12.93;;;20.80;34.40;;;;;;5073902;28;20395;-71
2023/06/10 06:10:27;;;;;;;18.30;13.60;;;20.90;34.10;;;;;;5075453;28;20388;-70
2023/06/10 06:12:52;;;;;;;20.23;13.10;;;21.00;33.50;;;;;;5074329;28;20433;-71
2023/06/10 06:15:18;;;;;;;17.10;13.18;;;21.20;32.30;;;;;;5085362;28;20466;-72
2023/06/10 06:17:43;;;;;;;15.07;12.70;;;21.30;31.70;;;;;;5084887;28;20930;-70
2023/06/10 06:20:09;;;;;;;17.10;12.70;;;21.30;31.00;;;;;;5084161;28;20391;-70
2023/06/10 06:22:34;;;;;;;16.05;12.50;;;21.40;30.80;;;;;;5086802;28;20410;-72
2023/06/10 06:25:00;;;;;;;18.23;13.13;;;21.40;31.30;;;;;;5077833;28;20403;-71
2023/06/10 06:27:25;;;;;;;15.47;12.30;;;21.60;30.50;;;;;;5073945;28;20465;-71
2023/06/10 06:29:51;;;;;;;22.27;15.80;;;21.70;28.70;;;;;;5073537;28;20388;-71
2023/06/10 06:32:17;;;;;;;26.10;18.43;;;21.80;29.00;;;;;;5072880;28;20470;-70
2023/06/10 06:34:42;;;;;;;18.42;14.63;;;22.00;29.20;;;;;;5073459;28;20803;-73
2023/06/10 06:37:08;;;;;;;25.00;17.03;;;22.10;27.80;;;;;;5073861;28;20445;-73
2023/06/10 06:39:33;;;;;;;17.87;13.00;;;22.20;27.80;;;;;;5073881;28;20390;-71
2023/06/10 06:41:59;;;;;;;18.10;14.00;;;22.10;27.40;;;;;;5073128;28;20494;-72
2023/06/10 06:44:24;;;;;;;18.97;13.87;;;22.20;27.40;;;;;;5074052;28;20384;-71
2023/06/10 06:46:50;;;;;;;27.70;18.95;;;22.30;27.30;;;;;;5073429;28;20387;-71
2023/06/10 06:49:16;;;;;;;19.40;15.03;;;22.40;26.60;;;;;;5073372;28;20376;-71
2023/06/10 06:51:41;;;;;;;21.10;12.68;;;22.50;26.40;;;;;;5072538;28;20390;-73
2023/06/10 06:54:07;;;;;;;15.57;12.25;;;22.50;26.10;;;;;;5071607;28;20431;-71
2023/06/10 06:56:32;;;;;;;17.27;11.70;;;22.50;25.80;;;;;;5072332;28;20398;-72
2023/06/10 06:58:58;;;;;;;13.55;10.77;;;22.60;25.00;;;;;;5072945;28;20783;-74
2023/06/10 07:01:24;;;;;;;14.13;11.80;;;22.60;25.50;;;;;;5072467;28;20467;-72
2023/06/10 07:03:49;;;;;;;17.60;11.80;;;22.80;25.20;;;;;;5069834;28;20391;-73
2023/06/10 07:06:15;;;;;;;14.77;12.18;;;22.90;23.90;;;;;;5071004;28;20375;-72
2023/06/10 07:08:40;;;;;;;14.53;11.03;;;22.90;24.20;;;;;;5072187;28;20401;-72
2023/06/10 07:11:06;;;;;;;19.52;11.27;;;23.10;23.20;;;;;;5071788;28;20384;-72
2023/06/10 07:13:31;;;;;;;15.17;11.17;;;23.20;22.60;;;;;;5072271;28;20384;-71
2023/06/10 07:15:57;;;;;;;13.25;11.25;;;23.30;22.50;;;;;;5072277;28;20471;-72
2023/06/10 07:18:22;;;;;;;15.27;11.80;;;23.30;22.40;;;;;;5072995;28;20398;-72
2023/06/10 07:20:48;;;;;;;14.50;11.23;;;23.40;22.40;;;;;;5078259;28;20380;-70
2023/06/10 07:23:14;;;;;;;13.60;10.70;;;23.50;23.30;;;;;;5070365;28;20509;-73
2023/06/10 07:25:41;;;;;;;14.70;10.50;;;23.60;21.80;;;;;;5064339;28;20393;-71
2023/06/10 07:28:07;;;;;;;16.60;11.38;;;23.70;21.10;;;;;;5076342;28;20915;-70
2023/06/10 07:30:32;;;;;;;16.58;11.95;;;23.80;20.80;;;;;;5076317;28;20398;-72
2023/06/10 07:32:58;;;;;;;13.80;10.87;;;23.90;20.80;;;;;;5068061;28;20745;-70
2023/06/10 07:35:23;;;;;;;13.63;10.67;;;23.90;20.30;;;;;;5075072;28;20480;-72
2023/06/10 07:37:49;;;;;;;17.75;10.63;;;24.00;20.10;;;;;;5071373;28;20399;-72
2023/06/10 07:40:14;;;;;;;14.63;10.50;;;24.10;19.20;;;;;;5074807;28;20416;-73
2023/06/10 07:42:40;;;;;;;12.32;9.45;;;24.20;18.90;;;;;;5063324;28;20400;-73
2023/06/10 07:45:06;;;;;;;15.23;9.97;;;24.40;18.10;;;;;;5054994;28;20873;-71
2023/06/10 07:47:33;;;;;;;12.82;9.52;;;24.40;18.20;;;;;;5052826;28;20381;-71
2023/06/10 07:49:58;;;;;;;15.40;10.20;;;24.70;17.40;;;;;;5055024;28;20389;-70
2023/06/10 07:52:25;;;;;;;14.32;10.00;;;24.60;17.60;;;;;;5053739;28;20385;-70
2023/06/10 07:54:51;;;;;;;14.52;10.50;;;24.50;18.10;;;;;;5055627;28;20413;-69
2023/06/10 07:57:18;;;;;;;14.45;10.48;;;24.90;16.60;;;;;;5055780;28;20440;-72
2023/06/10 07:59:44;;;;;;;12.63;10.70;;;24.90;16.10;;;;;;5055714;28;20427;-73
2023/06/10 08:02:10;;;;;;;12.23;9.98;;;24.90;16.60;;;;;;5053541;28;20381;-72
2023/06/10 08:04:35;;;;;;;13.75;10.00;;;25.00;16.90;;;;;;5054312;28;20439;-71
2023/06/10 08:07:02;;;;;;;12.57;9.93;;;25.10;16.80;;;;;;5054058;28;20381;-72
2023/06/10 08:09:27;;;;;;;13.00;10.50;;;25.20;16.50;;;;;;5052332;28;20926;-72
2023/06/10 08:11:53;;;;;;;14.37;10.33;;;25.10;16.30;;;;;;5051240;28;20477;-72
2023/06/10 08:14:19;;;;;;;19.58;10.68;;;25.20;16.90;;;;;;5051509;28;20409;-72
2023/06/10 08:16:44;;;;;;;13.83;9.90;;;25.30;16.30;;;;;;5070991;28;20578;-73
2023/06/10 08:19:10;;;;;;;14.20;10.20;;;25.40;16.60;;;;;;5069602;28;20403;-71
2023/06/10 08:21:39;;;;;;;17.03;9.80;;;25.40;16.70;;;;;;5070257;28;20473;-70
2023/06/10 08:24:06;;;;;;;14.93;9.02;;;25.60;16.70;;;;;;5071735;28;20375;-72
2023/06/10 08:26:32;;;;;;;15.85;10.23;;;25.70;13.90;;;;;;5066765;28;20391;-75
2023/06/10 08:28:58;;;;;;;15.93;9.57;;;25.70;13.80;;;;;;5074781;28;20386;-76
2023/06/10 08:31:24;;;;;;;11.15;9.23;;;25.60;13.60;;;;;;5071687;28;20396;-76
2023/06/10 08:33:49;;;;;;;14.90;9.95;;;25.80;14.00;;;;;;5072341;28;20744;-72
2023/06/10 08:36:15;;;;;;;16.63;10.47;;;25.90;13.20;;;;;;5070388;28;20938;-71
2023/06/10 08:38:40;;;;;;;15.27;9.93;;;26.10;13.60;;;;;;5069943;28;20479;-71
2023/06/10 08:41:06;;;;;;;11.00;9.30;;;26.10;13.10;;;;;;5053020;28;20802;-71
2023/06/10 08:43:40;;;;;;;11.23;9.63;;;26.30;12.90;;;;;;5053021;28;20373;-72
2023/06/10 08:46:08;;;;;;;14.15;10.23;;;26.50;13.10;;;;;;5051848;28;20815;-72
2023/06/10 08:48:35;;;;;;;13.70;9.90;;;26.50;13.70;;;;;;5052565;28;20443;-71
2023/06/10 08:51:04;;;;;;;12.97;9.63;;;26.60;13.30;;;;;;5052845;28;20778;-71
2023/06/10 08:53:33;;;;;;;13.50;10.20;;;26.50;13.40;;;;;;5053166;28;20393;-72
2023/06/10 08:56:02;;;;;;;12.38;10.02;;;26.50;13.70;;;;;;5053453;28;20770;-72
2023/06/10 08:58:28;;;;;;;12.93;9.98;;;26.30;14.30;;;;;;5054116;28;20390;-72
2023/06/10 09:00:54;;;;;;;15.52;10.25;;;26.40;14.30;;;;;;5053947;28;20397;-70
2023/06/10 09:03:21;;;;;;;12.73;10.50;;;26.50;14.10;;;;;;5053399;28;20399;-73
2023/06/10 09:05:48;;;;;;;18.92;11.80;;;26.60;14.30;;;;;;5051999;28;20816;-72
2023/06/10 09:08:15;;;;;;;17.77;11.00;;;26.70;13.90;;;;;;5051374;28;20443;-73
2023/06/10 09:10:41;;;;;;;11.33;9.90;;;27.00;13.80;;;;;;5051499;28;20949;-73
2023/06/10 09:13:06;;;;;;;15.10;10.57;;;27.10;13.00;;;;;;5051691;28;20413;-72
2023/06/10 09:15:32;;;;;;;17.60;10.73;;;27.00;13.40;;;;;;5052509;28;20409;-73
2023/06/10 09:17:59;;;;;;;13.90;10.20;;;27.00;13.60;;;;;;5052240;28;20439;-73
2023/06/10 09:20:25;;;;;;;13.25;11.38;;;27.10;13.30;;;;;;5051379;28;20456;-73
2023/06/10 09:22:50;;;;;;;18.05;11.50;;;27.00;13.30;;;;;;5050862;28;20520;-73
2023/06/10 09:25:16;;;;;;;14.10;10.43;;;27.00;13.80;;;;;;5050471;28;20472;-72
2023/06/10 09:27:48;;;;;;;12.00;10.00;;;27.20;13.20;;;;;;5055819;28;20377;-71
2023/06/10 09:30:26;;;;;;;14.32;9.60;;;27.20;12.90;;;;;;5056834;28;20389;-73
2023/06/10 09:32:53;;;;;;;17.33;9.80;;;27.20;13.10;;;;;;5056234;28;20889;-72
2023/06/10 09:35:19;;;;;;;13.55;10.40;;;27.20;12.70;;;;;;5055955;28;20405;-73
2023/06/10 09:37:45;;;;;;;18.45;11.23;;;27.10;13.00;;;;;;5055663;28;20388;-74
2023/06/10 09:40:11;;;;;;;12.07;9.30;;;27.20;13.40;;;;;;5055356;28;20435;-73
2023/06/10 09:42:38;;;;;;;13.25;9.80;;;27.40;12.50;;;;;;5055040;28;20455;-72
2023/06/10 09:45:05;;;;;;;19.90;10.13;;;27.30;11.80;;;;;;5054656;28;20753;-72
2023/06/10 09:47:31;;;;;;;12.53;9.80;;;27.20;12.00;;;;;;5053994;28;20382;-72
2023/06/10 09:49:56;;;;;;;11.25;10.02;;;27.10;12.10;;;;;;5054684;28;20396;-73
2023/06/10 09:52:23;;;;;;;15.03;11.00;;;27.20;12.30;;;;;;5054333;28;20890;-71
2023/06/10 09:54:50;;;;;;;14.10;9.55;;;27.30;12.20;;;;;;5061050;28;20381;-72
2023/06/10 09:57:17;;;;;;;14.85;9.25;;;27.30;11.90;;;;;;5064428;28;20385;-70
2023/06/10 09:59:42;;;;;;;13.53;9.43;;;27.40;11.90;;;;;;5066852;28;20381;-70
2023/06/10 10:02:14;;;;;;;18.27;10.13;;;27.60;11.50;;;;;;5072625;28;20385;-72
2023/06/10 10:04:40;;;;;;;12.30;9.07;;;27.80;11.40;;;;;;5074481;28;20415;-72
2023/06/10 10:07:07;;;;;;;16.57;9.73;;;28.00;10.30;;;;;;5071386;28;20393;-73
2023/06/10 10:09:32;;;;;;;12.90;9.40;;;28.00;10.70;;;;;;5061860;28;20384;-71
2023/06/10 10:12:00;;;;;;;14.37;9.10;;;27.90;9.80;;;;;;5055770;28;20746;-72
2023/06/10 10:14:29;;;;;;;12.20;9.50;;;27.90;9.80;;;;;;5057199;28;20457;-72
2023/06/10 10:16:56;;;;;;;12.20;8.98;;;27.80;9.80;;;;;;5065980;28;20462;-72
2023/06/10 10:19:30;;;;;;;13.50;9.55;;;27.80;9.30;;;;;;5070967;28;20389;-72
2023/06/10 10:22:03;;;;;;;12.07;9.00;;;27.90;9.80;;;;;;5070459;28;20792;-72
2023/06/10 10:24:42;;;;;;;10.52;8.70;;;28.00;10.00;;;;;;5070698;28;20385;-71
2023/06/10 10:27:16;;;;;;;14.98;9.25;;;28.00;8.90;;;;;;5070250;28;20390;-71
2023/06/10 10:29:47;;;;;;;12.23;9.20;;;28.20;8.30;;;;;;5054398;28;20413;-69
2023/06/10 10:32:16;;;;;;;15.10;9.65;;;28.50;7.60;;;;;;5053127;28;20746;-71
2023/06/10 10:35:17;;;;;;;11.65;9.27;;;28.70;8.30;;;;;;5053153;28;20882;-71
2023/06/10 10:37:43;;;;;;;13.30;8.23;;;28.80;6.80;;;;;;5052852;28;20468;-72
2023/06/10 10:40:11;;;;;;;14.70;9.80;;;28.90;6.50;;;;;;5052869;28;20441;-71
2023/06/10 10:42:37;;;;;;;19.02;10.13;;;29.00;7.70;;;;;;5052282;28;20728;-71
2023/06/10 10:45:03;;;;;;;9.98;8.70;;;29.00;7.50;;;;;;5053253;28;20385;-71
2023/06/10 10:47:30;;;;;;;11.98;8.60;;;29.10;6.80;;;;;;5052561;28;20813;-71
2023/06/10 10:49:59;;;;;;;13.90;8.50;;;29.00;7.10;;;;;;5052522;28;20393;-72
2023/06/10 10:52:25;;;;;;;9.93;8.20;;;29.10;6.10;;;;;;5052395;28;20397;-71
2023/06/10 10:54:53;;;;;;;11.32;8.90;;;29.00;5.40;;;;;;5052396;28;20862;-72
2023/06/10 10:57:20;;;;;;;9.65;8.60;;;28.90;5.50;;;;;;5052422;28;20377;-72
2023/06/10 10:59:49;;;;;;;14.52;9.10;;;28.80;5.80;;;;;;5052584;28;20382;-71
2023/06/10 11:02:40;;;;;;;10.60;8.55;;;28.70;6.20;;;;;;5051894;28;20381;-70
2023/06/10 11:05:06;;;;;;;13.85;8.88;;;28.50;6.20;;;;;;5051900;28;20389;-72
2023/06/10 11:07:33;;;;;;;14.38;9.05;;;28.50;6.40;;;;;;5052041;28;20396;-72
2023/06/10 11:10:01;;;;;;;15.85;7.90;;;28.80;5.90;;;;;;5052329;28;20602;-72
2023/06/10 11:12:45;;;;;;;11.60;8.98;;;29.20;5.10;;;;;;5051702;28;20382;-70
2023/06/10 11:15:17;;;;;;;13.45;8.55;;;29.60;4.90;;;;;;5051924;28;20413;-70
2023/06/10 11:18:15;;;;;;;13.07;8.80;;;29.80;4.30;;;;;;5051972;28;20878;-71
2023/06/10 11:20:49;;;;;;;12.23;9.50;;;29.70;4.00;;;;;;5061409;28;20397;-71
2023/06/10 11:23:27;;;;;;;10.55;7.50;;;29.70;4.60;;;;;;5051852;28;20381;-70
2023/06/10 11:26:26;;;;;;;12.15;8.45;;;29.80;4.40;;;;;;5051893;28;20382;-70
2023/06/10 11:28:55;;;;;;;10.02;8.85;;;29.60;4.00;;;;;;5051628;28;20379;-70
2023/06/10 11:31:40;;;;;;;13.68;8.43;;;29.40;4.80;;;;;;5052201;28;20484;-72
2023/06/10 11:34:07;;;;;;;11.50;8.10;;;29.50;5.70;;;;;;5052697;28;20471;-73
2023/06/10 11:36:36;;;;;;;10.93;8.63;;;29.50;4.40;;;;;;5050200;28;20843;-72
2023/06/10 11:39:06;;;;;;;13.20;8.30;;;29.40;4.00;;;;;;5052123;28;20377;-72
2023/06/10 11:41:33;;;;;;;11.02;8.68;;;29.60;4.60;;;;;;5051727;28;20393;-72
2023/06/10 11:44:04;;;;;;;13.52;9.23;;;30.00;5.30;;;;;;5052139;28;20388;-73
2023/06/10 11:46:29;;;;;;;11.48;8.60;;;30.30;4.10;;;;;;5053318;28;20432;-72
2023/06/10 11:48:57;;;;;;;12.23;8.23;;;30.50;3.00;;;;;;5053076;28;20508;-71
2023/06/10 11:51:25;;;;;;;11.68;7.88;;;30.50;3.30;;;;;;5055311;28;20393;-72
2023/06/10 11:53:52;;;;;;;11.00;8.93;;;30.50;3.10;;;;;;5055902;28;20727;-72
2023/06/10 11:56:27;;;;;;;11.30;8.05;;;30.70;3.30;;;;;;5052670;28;20405;-72
2023/06/10 11:59:09;;;;;;;13.77;7.90;;;30.90;2.60;;;;;;5051550;28;20381;-73
2023/06/10 12:01:42;;;;;;;10.48;8.55;;;30.90;1.60;;;;;;5066632;28;20392;-73
2023/06/10 12:04:09;;;;;;;11.73;9.80;;;30.70;2.10;;;;;;5051783;28;20377;-71
2023/06/10 12:06:43;;;;;;;14.68;9.07;;;30.60;3.30;;;;;;5052636;28;20758;-73
2023/06/10 12:09:26;;;;;;;10.75;9.27;;;30.40;3.30;;;;;;5051911;28;20393;-72
2023/06/10 12:12:02;;;;;;;11.80;8.37;;;30.40;3.60;;;;;;5052810;28;20385;-73
2023/06/10 12:14:56;;;;;;;11.30;9.00;;;30.70;2.90;;;;;;5054622;28;20400;-70
2023/06/10 12:17:32;;;;;;;9.10;8.20;;;31.00;2.50;;;;;;5054146;28;20468;-72
2023/06/10 12:19:58;;;;;;;10.18;9.07;;;31.20;2.50;;;;;;5053177;28;20519;-71
2023/06/10 12:22:25;;;;;;;14.82;9.23;;;31.60;3.60;;;;;;5053123;28;20393;-73
2023/06/10 12:25:04;;;;;;;12.80;8.48;;;31.80;2.10;;;;;;5053822;28;20427;-73
2023/06/10 12:27:31;;;;;;;9.88;8.70;;;31.90;1.50;;;;;;5053243;28;20480;-70
2023/06/10 12:30:03;;;;;;;9.10;8.10;;;31.80;1.40;;;;;;5051735;28;20390;-71
2023/06/10 12:32:36;;;;;;;9.70;8.70;;;31.80;1.40;;;;;;5051544;28;20529;-71